Time;durP1;ratioP1;P1;durP2;ratioP2;P2;SDS_P1;SDS_P2;PMS_P1;PMS_P2;Temp;Humidity;BMP_temperature;BMP_pressure;BME280_temperature;BME280_humidity;BME280_pressure;Samples;Min_cycle;Max_cycle;Signal;HPM_P1;HPM_P2
2023/12/17 00:02:23;;;;;;;20.52;9.50;;;7.90;99.90;;;;;;7347644;32;20099;-57
2023/12/17 00:06:25;;;;;;;17.23;9.70;;;7.90;99.90;;;;;;7352706;32;20520;-57
2023/12/17 00:10:27;;;;;;;20.15;9.80;;;7.90;99.90;;;;;;7348627;32;20272;-57
2023/12/17 00:14:29;;;;;;;16.83;9.43;;;7.90;99.90;;;;;;7350618;32;20261;-56
2023/12/17 00:18:32;;;;;;;20.80;9.63;;;7.90;99.90;;;;;;7348200;32;20133;-57
2023/12/17 00:22:34;;;;;;;16.00;9.25;;;7.90;99.90;;;;;;7347191;32;20149;-57
2023/12/17 00:26:38;;;;;;;23.10;9.38;;;7.90;99.90;;;;;;7348477;32;20828;-57
2023/12/17 00:30:40;;;;;;;17.98;9.75;;;8.00;99.90;;;;;;7348611;32;20191;-57
2023/12/17 00:34:42;;;;;;;18.02;9.00;;;7.90;99.90;;;;;;7350423;32;20507;-57
2023/12/17 00:38:44;;;;;;;18.98;9.60;;;8.00;99.90;;;;;;7351034;32;20125;-57
2023/12/17 00:42:45;;;;;;;16.17;8.93;;;8.00;99.90;;;;;;7353429;32;20110;-57
2023/12/17 00:46:47;;;;;;;16.33;9.10;;;8.00;99.90;;;;;;7348960;32;20189;-58
2023/12/17 00:50:49;;;;;;;20.58;10.45;;;8.00;99.90;;;;;;7347938;32;20148;-57
2023/12/17 00:54:51;;;;;;;20.48;9.60;;;8.00;99.90;;;;;;7347133;32;20213;-57
2023/12/17 00:58:53;;;;;;;14.57;10.52;;;7.90;99.90;;;;;;7350332;32;20172;-57
2023/12/17 01:02:54;;;;;;;17.42;10.63;;;7.90;99.90;;;;;;7348885;32;20233;-57
2023/12/17 01:06:56;;;;;;;17.27;11.50;;;7.90;99.90;;;;;;7345964;32;20266;-57
2023/12/17 01:10:58;;;;;;;20.98;12.52;;;7.90;99.90;;;;;;7344593;32;20507;-56
2023/12/17 01:15:00;;;;;;;16.35;11.52;;;7.90;99.90;;;;;;7350213;32;20118;-58
2023/12/17 01:19:02;;;;;;;17.45;11.07;;;7.90;99.90;;;;;;7353151;32;20136;-58
2023/12/17 01:23:04;;;;;;;17.23;11.45;;;7.80;99.90;;;;;;7349135;32;20237;-57
2023/12/17 01:27:06;;;;;;;19.42;11.40;;;7.80;99.90;;;;;;7350068;32;20123;-57
2023/12/17 01:31:07;;;;;;;19.45;10.27;;;7.80;99.90;;;;;;7348853;32;20654;-59
2023/12/17 01:35:09;;;;;;;19.85;11.20;;;7.80;99.90;;;;;;7346955;32;20795;-56
2023/12/17 01:39:11;;;;;;;16.00;10.45;;;7.80;99.90;;;;;;7352781;32;20122;-57
2023/12/17 01:43:13;;;;;;;16.23;10.73;;;7.70;99.90;;;;;;7343592;32;20115;-55
2023/12/17 01:47:15;;;;;;;15.85;10.18;;;7.80;99.90;;;;;;7349726;32;20119;-56
2023/12/17 01:51:17;;;;;;;17.20;10.90;;;7.70;99.90;;;;;;7348197;32;20219;-56
2023/12/17 01:55:19;;;;;;;21.70;11.30;;;7.70;99.90;;;;;;7338984;32;20205;-55
2023/12/17 01:59:21;;;;;;;19.87;11.98;;;7.70;99.90;;;;;;7345961;32;20202;-55
2023/12/17 02:03:23;;;;;;;21.60;11.30;;;7.70;99.90;;;;;;7348042;32;20184;-56
2023/12/17 02:07:25;;;;;;;21.45;10.63;;;7.70;99.90;;;;;;7346756;32;20576;-57
2023/12/17 02:11:27;;;;;;;21.73;11.73;;;7.70;99.90;;;;;;7347092;32;20158;-56
2023/12/17 02:15:28;;;;;;;20.12;11.80;;;7.70;99.90;;;;;;7349592;32;20118;-55
2023/12/17 02:19:30;;;;;;;20.08;11.38;;;7.70;99.90;;;;;;7344422;32;20148;-56
2023/12/17 02:23:32;;;;;;;19.50;12.10;;;7.70;99.90;;;;;;7346972;32;20634;-56
2023/12/17 02:27:34;;;;;;;20.35;11.63;;;7.70;99.90;;;;;;7348634;32;20143;-56
2023/12/17 02:31:36;;;;;;;21.85;12.00;;;7.70;99.90;;;;;;7345286;32;20124;-56
2023/12/17 02:35:38;;;;;;;19.60;11.80;;;7.70;99.90;;;;;;7338815;32;20191;-56
2023/12/17 02:39:40;;;;;;;19.75;11.10;;;7.60;99.90;;;;;;7347132;32;20633;-56
2023/12/17 02:43:41;;;;;;;21.05;11.52;;;7.70;99.90;;;;;;7348351;32;20168;-56
2023/12/17 02:47:43;;;;;;;24.73;11.77;;;7.60;99.90;;;;;;7344251;32;20635;-57
2023/12/17 02:51:46;;;;;;;22.58;12.73;;;7.60;99.90;;;;;;7346058;32;20192;-56
2023/12/17 02:55:47;;;;;;;21.80;12.32;;;7.60;99.90;;;;;;7349447;32;20245;-55
2023/12/17 02:59:49;;;;;;;16.45;11.10;;;7.60;99.90;;;;;;7349291;32;20434;-55
2023/12/17 03:03:51;;;;;;;18.25;11.57;;;7.60;99.90;;;;;;7350929;32;20141;-56
2023/12/17 03:07:53;;;;;;;22.17;11.90;;;7.60;99.90;;;;;;7349463;32;20190;-57
2023/12/17 03:11:55;;;;;;;20.80;11.90;;;7.60;99.90;;;;;;7350508;32;20240;-57
2023/12/17 03:15:57;;;;;;;19.25;11.75;;;7.60;99.90;;;;;;7349576;32;20649;-56
2023/12/17 03:19:58;;;;;;;22.65;12.43;;;7.60;99.90;;;;;;7351109;32;20265;-56
2023/12/17 03:24:00;;;;;;;20.52;12.43;;;7.60;99.90;;;;;;7342527;32;20485;-56
2023/12/17 03:28:02;;;;;;;23.90;12.82;;;7.60;99.90;;;;;;7337489;32;20160;-57
2023/12/17 03:32:04;;;;;;;17.83;12.13;;;7.60;99.90;;;;;;7349086;32;20178;-57
2023/12/17 03:36:07;;;;;;;24.30;14.50;;;7.60;99.90;;;;;;7348746;32;20117;-56
2023/12/17 03:40:09;;;;;;;21.85;12.60;;;7.60;99.90;;;;;;7355283;32;20186;-55
2023/12/17 03:44:11;;;;;;;21.50;13.98;;;7.60;99.90;;;;;;7353899;32;20106;-55
2023/12/17 03:48:12;;;;;;;22.00;13.82;;;7.60;99.90;;;;;;7346236;32;20475;-56
2023/12/17 03:52:14;;;;;;;21.73;13.30;;;7.60;99.90;;;;;;7350212;32;20099;-57
2023/12/17 03:56:16;;;;;;;22.65;13.40;;;7.60;99.90;;;;;;7350402;32;20183;-56
2023/12/17 04:00:18;;;;;;;21.00;13.30;;;7.60;99.90;;;;;;7349825;32;20187;-55
2023/12/17 04:04:20;;;;;;;18.10;12.07;;;7.60;99.90;;;;;;7346723;32;20131;-55
2023/12/17 04:08:22;;;;;;;19.48;12.02;;;7.70;99.90;;;;;;7348769;32;20461;-57
2023/12/17 04:12:24;;;;;;;18.92;11.88;;;7.60;99.90;;;;;;7351853;32;20214;-56
2023/12/17 04:16:26;;;;;;;18.12;11.52;;;7.70;99.90;;;;;;7347908;32;20118;-55
2023/12/17 04:20:27;;;;;;;18.05;12.20;;;7.60;99.90;;;;;;7353259;32;20513;-55
2023/12/17 04:24:29;;;;;;;15.48;11.73;;;7.60;99.90;;;;;;7347158;32;20190;-56
2023/12/17 04:28:31;;;;;;;16.67;11.75;;;7.50;99.90;;;;;;7341966;32;20107;-55
2023/12/17 04:32:33;;;;;;;18.50;12.32;;;7.60;99.90;;;;;;7353127;32;20493;-56
2023/12/17 04:36:35;;;;;;;16.77;12.43;;;7.50;99.90;;;;;;7354761;32;20547;-58
2023/12/17 04:40:37;;;;;;;20.92;11.93;;;7.50;99.90;;;;;;7349259;32;20092;-56
2023/12/17 04:44:38;;;;;;;18.75;12.23;;;7.40;99.90;;;;;;7344145;32;20151;-56
2023/12/17 04:48:40;;;;;;;18.17;11.30;;;7.50;99.90;;;;;;7347177;32;20122;-56
2023/12/17 04:52:42;;;;;;;18.10;11.82;;;7.40;99.90;;;;;;7350793;32;20111;-56
2023/12/17 04:56:44;;;;;;;20.70;12.32;;;7.40;99.90;;;;;;7347583;32;20156;-56
2023/12/17 05:00:45;;;;;;;18.10;11.82;;;7.40;99.90;;;;;;7348165;32;20182;-56
2023/12/17 05:04:47;;;;;;;22.30;12.37;;;7.40;99.90;;;;;;7347396;32;20186;-56
2023/12/17 05:08:49;;;;;;;18.70;12.15;;;7.30;99.90;;;;;;7349293;32;20103;-56
2023/12/17 05:12:53;;;;;;;18.40;11.35;;;7.30;99.90;;;;;;7347139;32;20508;-56
2023/12/17 05:16:55;;;;;;;23.50;12.35;;;7.30;99.90;;;;;;7347635;32;20118;-55
2023/12/17 05:20:57;;;;;;;17.33;10.85;;;7.30;99.90;;;;;;7345346;32;20845;-55
2023/12/17 05:24:58;;;;;;;16.10;11.00;;;7.30;99.90;;;;;;7346836;32;20121;-55
2023/12/17 05:29:00;;;;;;;14.50;9.98;;;7.30;99.90;;;;;;7346394;32;20852;-56
2023/12/17 05:33:02;;;;;;;15.70;9.98;;;7.30;99.90;;;;;;7346511;32;20127;-55
2023/12/17 05:37:04;;;;;;;14.43;9.55;;;7.30;99.90;;;;;;7334157;32;20143;-55
2023/12/17 05:41:06;;;;;;;17.65;10.18;;;7.20;99.90;;;;;;7338777;32;20225;-58
2023/12/17 05:45:08;;;;;;;14.38;10.23;;;7.20;99.90;;;;;;7347055;32;20099;-56
2023/12/17 05:49:10;;;;;;;14.43;9.38;;;7.20;99.90;;;;;;7346710;32;20110;-55
2023/12/17 05:53:12;;;;;;;15.32;10.48;;;7.20;99.90;;;;;;7347833;32;20513;-56
2023/12/17 05:57:14;;;;;;;15.88;10.40;;;7.20;99.90;;;;;;7350641;32;20228;-56
2023/12/17 06:01:16;;;;;;;14.20;9.65;;;7.30;99.90;;;;;;7342241;32;20450;-57
2023/12/17 06:05:18;;;;;;;16.75;9.48;;;7.20;99.90;;;;;;7335473;32;20167;-56
2023/12/17 06:09:21;;;;;;;13.82;9.43;;;7.20;99.90;;;;;;7331987;32;20190;-56
2023/12/17 06:13:23;;;;;;;13.27;8.75;;;7.20;99.90;;;;;;7337654;32;20580;-56
2023/12/17 06:17:24;;;;;;;14.32;8.77;;;7.20;99.90;;;;;;7335347;32;20209;-55
2023/12/17 06:21:27;;;;;;;16.02;9.75;;;7.20;99.90;;;;;;7337772;32;20179;-55
2023/12/17 06:25:29;;;;;;;16.42;9.18;;;7.20;99.90;;;;;;7336893;32;20269;-56
2023/12/17 06:29:31;;;;;;;14.57;9.10;;;7.20;99.90;;;;;;7350438;32;20122;-56
2023/12/17 06:33:32;;;;;;;16.33;8.50;;;7.20;99.90;;;;;;7345012;32;20153;-56
2023/12/17 06:37:34;;;;;;;14.75;9.23;;;7.10;99.90;;;;;;7339336;32;20254;-56
2023/12/17 06:41:43;;;;;;;15.93;8.70;;;7.10;99.90;;;;;;7342179;32;22061;-55
2023/12/17 06:45:45;;;;;;;15.80;7.85;;;7.10;99.90;;;;;;7346358;32;20103;-54
2023/12/17 06:49:47;;;;;;;14.15;8.77;;;7.10;99.90;;;;;;7330081;32;20207;-56
2023/12/17 06:53:54;;;;;;;15.70;9.00;;;7.20;99.90;;;;;;7346689;32;20178;-54
2023/12/17 06:57:56;;;;;;;15.63;8.70;;;7.10;99.90;;;;;;7349381;32;20209;-57
2023/12/17 07:01:57;;;;;;;12.98;7.95;;;7.10;99.90;;;;;;7342640;32;20233;-57
2023/12/17 07:05:59;;;;;;;13.45;7.78;;;7.10;99.90;;;;;;7346944;32;20497;-56
2023/12/17 07:10:01;;;;;;;13.55;8.27;;;7.10;99.90;;;;;;7347616;32;20126;-56
2023/12/17 07:14:03;;;;;;;11.50;7.78;;;7.10;99.90;;;;;;7344192;32;20206;-56
2023/12/17 07:18:05;;;;;;;14.18;8.43;;;7.10;99.90;;;;;;7338066;32;20547;-55
2023/12/17 07:22:07;;;;;;;14.50;8.18;;;7.00;99.90;;;;;;7339154;32;20130;-56
2023/12/17 07:26:09;;;;;;;13.18;8.07;;;7.00;99.90;;;;;;7347209;32;20195;-55
2023/12/17 07:30:11;;;;;;;11.52;7.72;;;7.00;99.90;;;;;;7336489;32;20128;-55
2023/12/17 07:34:13;;;;;;;12.07;7.60;;;7.00;99.90;;;;;;7348593;32;20229;-57
2023/12/17 07:38:19;;;;;;;12.55;7.72;;;7.00;99.90;;;;;;7347568;32;20154;-57
2023/12/17 07:42:21;;;;;;;13.90;7.10;;;7.10;99.90;;;;;;7354823;32;20238;-57
2023/12/17 07:46:24;;;;;;;15.15;7.93;;;7.10;99.90;;;;;;7352187;32;20499;-58
2023/12/17 07:50:27;;;;;;;11.05;7.62;;;7.00;99.90;;;;;;7352885;32;20645;-56
2023/12/17 07:54:29;;;;;;;12.90;6.90;;;7.10;99.90;;;;;;7350414;32;20148;-58
2023/12/17 07:58:31;;;;;;;15.32;7.80;;;7.10;99.90;;;;;;7353128;32;20536;-58
2023/12/17 08:02:33;;;;;;;12.05;6.78;;;7.10;99.90;;;;;;7345085;32;20589;-58
2023/12/17 08:06:35;;;;;;;9.55;6.50;;;7.10;99.90;;;;;;7356863;32;20162;-57
2023/12/17 08:10:45;;;;;;;11.40;6.55;;;7.00;99.90;;;;;;7347681;32;20099;-57
2023/12/17 08:14:48;;;;;;;9.10;5.18;;;7.00;99.90;;;;;;7353379;32;20099;-56
2023/12/17 08:18:50;;;;;;;9.35;5.45;;;7.00;99.90;;;;;;7350621;32;20235;-57
2023/12/17 08:22:52;;;;;;;7.43;4.80;;;7.00;99.90;;;;;;7350683;32;20123;-57
2023/12/17 08:26:54;;;;;;;7.57;4.75;;;7.00;99.90;;;;;;7348203;32;20107;-57
2023/12/17 08:30:56;;;;;;;6.75;4.18;;;6.90;99.90;;;;;;7346245;32;20222;-57
2023/12/17 08:34:59;;;;;;;7.70;4.07;;;6.90;99.90;;;;;;7341591;32;20889;-56
2023/12/17 08:39:01;;;;;;;7.35;4.50;;;7.00;99.90;;;;;;7343586;32;20183;-56
2023/12/17 08:43:04;;;;;;;9.35;5.15;;;7.00;99.90;;;;;;7335257;32;20289;-56
2023/12/17 08:47:06;;;;;;;8.27;4.75;;;7.00;99.90;;;;;;7343442;32;20111;-57
2023/12/17 08:51:08;;;;;;;9.52;5.03;;;7.00;99.90;;;;;;7343441;32;20403;-57
2023/12/17 08:55:10;;;;;;;9.15;5.32;;;7.00;99.90;;;;;;7342759;32;20293;-57
2023/12/17 08:59:12;;;;;;;8.60;5.47;;;7.00;99.90;;;;;;7339406;32;20129;-58
2023/12/17 09:03:14;;;;;;;9.20;5.80;;;7.00;99.90;;;;;;7347780;32;20111;-58
2023/12/17 09:07:16;;;;;;;11.27;6.75;;;7.00;99.90;;;;;;7346706;32;20608;-58
2023/12/17 09:11:18;;;;;;;14.13;8.32;;;7.20;99.90;;;;;;7346204;32;20205;-57
2023/12/17 09:15:20;;;;;;;14.05;7.37;;;7.20;99.90;;;;;;7347901;32;20258;-58
2023/12/17 09:19:22;;;;;;;14.25;7.70;;;7.30;99.90;;;;;;7350263;32;20623;-57
2023/12/17 09:23:24;;;;;;;16.58;8.48;;;7.30;99.90;;;;;;7350698;32;20613;-54
2023/12/17 09:27:26;;;;;;;14.75;8.95;;;7.40;99.90;;;;;;7348995;32;20288;-57
2023/12/17 09:31:28;;;;;;;16.20;8.63;;;7.50;99.90;;;;;;7345928;32;20186;-57
2023/12/17 09:35:29;;;;;;;15.50;8.75;;;7.50;99.90;;;;;;7348061;32;20137;-57
2023/12/17 09:39:31;;;;;;;15.27;8.38;;;7.50;99.90;;;;;;7343130;32;20130;-58
2023/12/17 09:43:33;;;;;;;17.20;9.38;;;7.50;99.90;;;;;;7341199;32;20111;-57
2023/12/17 09:47:35;;;;;;;15.93;8.75;;;7.50;99.90;;;;;;7343411;32;20226;-57
2023/12/17 09:51:40;;;;;;;15.43;8.65;;;7.40;99.90;;;;;;7348069;32;20612;-57
2023/12/17 09:55:42;;;;;;;15.15;8.48;;;7.50;99.90;;;;;;7345277;32;20137;-59
2023/12/17 09:59:44;;;;;;;16.23;9.43;;;7.50;99.90;;;;;;7337060;32;20111;-56
2023/12/17 10:03:46;;;;;;;17.30;9.13;;;7.60;99.90;;;;;;7340871;32;20611;-58
2023/12/17 10:07:48;;;;;;;16.80;9.43;;;7.60;99.90;;;;;;7344831;32;20315;-58
2023/12/17 10:11:50;;;;;;;17.23;9.25;;;7.60;99.90;;;;;;7346837;32;20580;-57
2023/12/17 10:15:54;;;;;;;15.57;9.82;;;7.60;99.90;;;;;;7343286;32;20112;-57
2023/12/17 10:19:56;;;;;;;18.92;10.07;;;7.60;99.90;;;;;;7349948;32;20528;-58
2023/12/17 10:23:58;;;;;;;16.73;10.02;;;7.60;99.90;;;;;;7348600;32;20149;-58
2023/12/17 10:28:00;;;;;;;20.35;11.45;;;7.60;99.90;;;;;;7344198;32;20206;-58
2023/12/17 10:32:02;;;;;;;19.58;10.95;;;7.60;99.90;;;;;;7345373;32;20253;-57
2023/12/17 10:36:05;;;;;;;18.83;11.00;;;7.50;99.90;;;;;;7337748;32;20637;-58
2023/12/17 10:40:10;;;;;;;17.20;10.05;;;7.50;99.90;;;;;;7339067;32;20204;-56
2023/12/17 10:44:13;;;;;;;17.08;11.70;;;7.50;99.90;;;;;;7341918;32;20194;-58
2023/12/17 10:48:16;;;;;;;17.17;10.15;;;7.50;99.90;;;;;;7354887;32;20292;-58
2023/12/17 10:52:20;;;;;;;18.08;11.07;;;7.50;99.90;;;;;;7345803;32;20185;-59
2023/12/17 10:56:22;;;;;;;18.27;11.18;;;7.50;99.90;;;;;;7343306;32;20216;-59
2023/12/17 11:00:27;;;;;;;18.40;12.10;;;7.50;99.90;;;;;;7337886;32;20158;-58
2023/12/17 11:04:30;;;;;;;16.58;10.98;;;7.60;99.90;;;;;;7341065;32;20445;-57
2023/12/17 11:08:32;;;;;;;21.05;12.75;;;7.50;99.90;;;;;;7349097;32;20581;-59
2023/12/17 11:12:34;;;;;;;20.15;12.43;;;7.40;99.90;;;;;;7325245;32;20095;-58
2023/12/17 11:16:39;;;;;;;19.95;12.18;;;7.50;99.90;;;;;;7343138;32;20796;-59
2023/12/17 11:20:41;;;;;;;19.67;12.10;;;7.50;99.90;;;;;;7334080;32;20268;-59
2023/12/17 11:24:43;;;;;;;19.65;12.57;;;7.40;99.90;;;;;;7340092;32;20193;-59
2023/12/17 11:28:45;;;;;;;18.12;11.98;;;7.40;99.90;;;;;;7330609;32;20156;-59
2023/12/17 11:32:47;;;;;;;19.00;11.70;;;7.50;99.90;;;;;;7341326;32;20300;-58
2023/12/17 11:36:51;;;;;;;19.52;11.75;;;7.50;99.90;;;;;;7348228;32;20107;-58
2023/12/17 11:40:53;;;;;;;15.60;10.20;;;7.60;99.90;;;;;;7342498;32;20510;-59
2023/12/17 11:44:55;;;;;;;12.57;8.43;;;7.50;99.90;;;;;;7352080;32;20183;-59
2023/12/17 11:48:57;;;;;;;13.15;8.48;;;7.60;99.90;;;;;;7340345;32;20112;-58
2023/12/17 11:53:02;;;;;;;11.20;7.90;;;7.60;99.90;;;;;;7351075;32;20166;-59
2023/12/17 11:57:04;;;;;;;13.15;8.23;;;7.50;99.90;;;;;;7350261;32;20544;-59
2023/12/17 12:01:09;;;;;;;14.52;9.32;;;7.40;99.90;;;;;;7348250;32;20125;-57
2023/12/17 12:05:16;;;;;;;14.13;9.00;;;7.50;99.90;;;;;;7344757;32;20131;-58
2023/12/17 12:09:19;;;;;;;15.23;9.35;;;7.40;99.90;;;;;;7346236;32;20129;-58
2023/12/17 12:13:21;;;;;;;14.55;9.63;;;7.30;99.90;;;;;;7346662;32;20242;-58
2023/12/17 12:17:39;;;;;;;17.77;10.45;;;7.30;99.90;;;;;;7345511;32;20131;-57
2023/12/17 12:21:42;;;;;;;14.57;9.65;;;7.50;99.90;;;;;;7350103;32;20175;-57
2023/12/17 12:25:44;;;;;;;15.00;9.55;;;7.40;99.90;;;;;;7350984;32;20262;-57
2023/12/17 12:29:48;;;;;;;13.10;8.93;;;7.40;99.90;;;;;;7351277;32;20115;-57
2023/12/17 12:34:01;;;;;;;14.52;9.35;;;7.60;99.90;;;;;;7347058;32;20200;-57
2023/12/17 12:38:20;;;;;;;14.15;9.55;;;7.70;99.90;;;;;;7349771;32;20190;-58
2023/12/17 12:42:22;;;;;;;11.82;7.57;;;7.80;99.90;;;;;;7351199;32;20607;-58
2023/12/17 12:46:24;;;;;;;13.07;7.07;;;7.90;99.90;;;;;;7347711;32;20126;-58
2023/12/17 12:50:26;;;;;;;11.20;6.25;;;8.00;99.90;;;;;;7352611;32;20246;-58
2023/12/17 12:54:28;;;;;;;10.77;6.28;;;7.90;99.90;;;;;;7347361;32;20229;-58
2023/12/17 12:58:30;;;;;;;10.38;6.20;;;7.90;99.90;;;;;;7347745;32;20530;-57
2023/12/17 13:02:32;;;;;;;13.32;6.87;;;7.80;99.90;;;;;;7342975;32;20134;-58
2023/12/17 13:06:34;;;;;;;13.02;7.25;;;7.90;99.90;;;;;;7352425;32;20237;-58
2023/12/17 13:10:36;;;;;;;11.52;7.28;;;7.90;99.90;;;;;;7341943;32;20230;-59
2023/12/17 13:14:38;;;;;;;15.20;7.07;;;7.90;99.90;;;;;;7341558;32;20095;-59
2023/12/17 13:18:40;;;;;;;10.68;7.50;;;7.90;99.90;;;;;;7347742;32;20139;-56
2023/12/17 13:22:42;;;;;;;13.48;7.45;;;8.00;99.90;;;;;;7352154;32;20216;-58
2023/12/17 13:26:44;;;;;;;13.48;7.53;;;8.00;99.90;;;;;;7345670;32;20467;-58
2023/12/17 13:30:46;;;;;;;11.43;8.40;;;7.90;99.90;;;;;;7350618;32;20626;-59
2023/12/17 13:34:48;;;;;;;11.60;7.87;;;8.00;99.90;;;;;;7334275;32;20111;-58
2023/12/17 13:38:50;;;;;;;12.27;7.07;;;8.20;99.90;;;;;;7346145;32;20210;-57
2023/12/17 13:42:52;;;;;;;15.90;7.95;;;8.20;99.90;;;;;;7340474;32;20863;-59
2023/12/17 13:46:53;;;;;;;16.20;7.68;;;8.20;99.90;;;;;;7334946;32;20187;-57
2023/12/17 13:50:55;;;;;;;15.23;7.72;;;8.10;99.90;;;;;;7348717;32;20549;-57
2023/12/17 13:54:57;;;;;;;14.10;7.47;;;8.20;99.90;;;;;;7347640;32;20118;-56
2023/12/17 13:58:59;;;;;;;13.73;7.00;;;8.00;99.90;;;;;;7348874;32;20224;-56
2023/12/17 14:03:01;;;;;;;13.38;7.28;;;8.00;99.90;;;;;;7343026;32;20119;-56
2023/12/17 14:07:03;;;;;;;11.75;7.20;;;8.00;99.90;;;;;;7339493;32;20119;-56
2023/12/17 14:11:04;;;;;;;15.65;7.15;;;8.10;99.90;;;;;;7348231;32;20218;-57
2023/12/17 14:15:08;;;;;;;12.75;6.40;;;8.10;99.90;;;;;;7345900;32;20103;-56
2023/12/17 14:19:10;;;;;;;16.42;7.65;;;8.00;99.90;;;;;;7338857;32;20174;-57
2023/12/17 14:23:12;;;;;;;13.88;7.55;;;8.10;99.90;;;;;;7343117;32;20122;-58
2023/12/17 14:27:14;;;;;;;14.98;7.18;;;8.00;99.90;;;;;;7351012;32;20111;-57
2023/12/17 14:31:16;;;;;;;15.02;7.05;;;8.00;99.90;;;;;;7350901;32;20233;-58
2023/12/17 14:35:18;;;;;;;12.60;6.95;;;8.00;99.90;;;;;;7348594;32;20156;-56
2023/12/17 14:39:21;;;;;;;11.50;6.12;;;7.90;99.90;;;;;;7350677;32;20673;-56
2023/12/17 14:43:22;;;;;;;10.82;5.80;;;7.80;99.90;;;;;;7350189;32;20222;-58
2023/12/17 14:47:24;;;;;;;8.52;5.03;;;7.80;99.90;;;;;;7353110;32;20517;-57
2023/12/17 14:51:26;;;;;;;11.60;4.90;;;7.70;99.90;;;;;;7349742;32;20134;-57
2023/12/17 14:55:30;;;;;;;9.00;4.90;;;7.70;99.90;;;;;;7353055;32;20160;-57
2023/12/17 14:59:36;;;;;;;10.80;5.43;;;7.60;99.90;;;;;;7348799;32;20628;-57
2023/12/17 15:03:38;;;;;;;9.68;4.32;;;7.60;99.90;;;;;;7348546;32;20143;-57
2023/12/17 15:07:41;;;;;;;7.70;4.50;;;7.40;99.90;;;;;;7357511;32;20768;-55
2023/12/17 15:11:42;;;;;;;8.82;4.37;;;7.50;99.90;;;;;;7351194;32;20155;-56
2023/12/17 15:15:44;;;;;;;8.40;4.72;;;7.30;99.90;;;;;;7345401;32;20119;-56
2023/12/17 15:19:47;;;;;;;7.62;4.85;;;7.20;99.90;;;;;;7358830;32;20600;-58
2023/12/17 15:23:49;;;;;;;9.05;4.43;;;7.10;99.90;;;;;;7351466;32;20114;-56
2023/12/17 15:27:51;;;;;;;7.97;4.60;;;7.10;99.90;;;;;;7354463;32;20240;-57
2023/12/17 15:31:52;;;;;;;9.07;4.60;;;7.00;99.90;;;;;;7341866;32;20160;-57
2023/12/17 15:35:54;;;;;;;9.65;4.65;;;6.90;99.90;;;;;;7349649;32;20091;-56
2023/12/17 15:39:56;;;;;;;8.98;4.85;;;6.80;99.90;;;;;;7354172;32;20252;-56
2023/12/17 15:43:57;;;;;;;6.93;4.30;;;6.80;99.90;;;;;;7354456;32;20111;-58
2023/12/17 15:48:00;;;;;;;8.80;5.20;;;6.60;99.90;;;;;;7353883;32;20107;-56
2023/12/17 15:52:02;;;;;;;8.15;4.30;;;6.50;99.90;;;;;;7352247;32;20119;-58
2023/12/17 15:56:04;;;;;;;11.15;5.75;;;6.40;99.90;;;;;;7352747;32;20567;-56
2023/12/17 16:00:10;;;;;;;11.48;5.55;;;6.30;99.90;;;;;;7345176;32;20194;-56
2023/12/17 16:04:12;;;;;;;9.43;5.40;;;6.20;99.90;;;;;;7351400;32;20103;-57
2023/12/17 16:08:14;;;;;;;11.50;5.78;;;6.20;99.90;;;;;;7350001;32;20134;-56
2023/12/17 16:12:16;;;;;;;12.23;6.60;;;6.20;99.90;;;;;;7355702;32;20126;-56
2023/12/17 16:16:24;;;;;;;11.43;5.85;;;6.10;99.90;;;;;;7356700;32;20117;-56
2023/12/17 16:20:26;;;;;;;8.13;5.12;;;6.10;99.90;;;;;;7350905;32;20099;-55
2023/12/17 16:24:28;;;;;;;10.35;6.32;;;6.00;99.90;;;;;;7349057;32;20102;-58
2023/12/17 16:28:30;;;;;;;10.48;5.40;;;5.90;99.90;;;;;;7356715;32;20453;-56
2023/12/17 16:32:33;;;;;;;11.38;5.70;;;5.90;99.90;;;;;;7337500;32;20107;-56
2023/12/17 16:36:42;;;;;;;7.68;5.95;;;5.90;99.90;;;;;;7333990;32;20115;-57
2023/12/17 16:40:44;;;;;;;9.15;5.47;;;5.80;99.90;;;;;;7321767;32;20130;-57
2023/12/17 16:44:46;;;;;;;8.90;5.97;;;5.70;99.90;;;;;;7332486;32;20115;-56
2023/12/17 16:48:48;;;;;;;14.23;8.45;;;5.70;99.90;;;;;;7338045;32;20103;-55
2023/12/17 16:53:00;;;;;;;10.55;6.47;;;5.60;99.90;;;;;;7336827;32;20095;-56
2023/12/17 16:57:02;;;;;;;12.20;7.53;;;5.60;99.90;;;;;;7346137;32;20140;-56
2023/12/17 17:01:06;;;;;;;11.43;6.55;;;5.70;99.90;;;;;;7338243;32;20225;-57
2023/12/17 17:05:08;;;;;;;8.60;6.20;;;5.80;99.90;;;;;;7342777;32;20502;-57
2023/12/17 17:09:10;;;;;;;12.25;7.80;;;5.80;99.90;;;;;;7351907;32;20305;-56
2023/12/17 17:13:12;;;;;;;10.05;7.78;;;5.80;99.90;;;;;;7341677;32;20194;-57
2023/12/17 17:17:14;;;;;;;19.37;14.20;;;5.90;99.90;;;;;;7348031;32;20313;-57
2023/12/17 17:21:15;;;;;;;25.80;20.67;;;5.80;99.90;;;;;;7347587;32;20246;-57
2023/12/17 17:25:17;;;;;;;29.23;23.45;;;6.00;99.90;;;;;;7341761;32;20195;-56
2023/12/17 17:29:19;;;;;;;28.10;23.02;;;5.90;99.90;;;;;;7339645;32;20126;-56
2023/12/17 17:33:21;;;;;;;26.50;20.37;;;5.90;99.90;;;;;;7333998;32;20220;-56
2023/12/17 17:37:24;;;;;;;24.33;18.98;;;5.90;99.90;;;;;;7339491;32;20104;-56
2023/12/17 17:41:26;;;;;;;15.85;13.43;;;5.90;99.90;;;;;;7335637;32;20560;-55
2023/12/17 17:45:28;;;;;;;13.65;10.13;;;5.90;99.90;;;;;;7328632;32;20212;-57
2023/12/17 17:49:29;;;;;;;11.90;8.68;;;5.90;99.90;;;;;;7343814;32;20258;-56
2023/12/17 17:53:33;;;;;;;13.32;9.65;;;5.90;99.90;;;;;;7335332;32;20194;-56
2023/12/17 17:57:36;;;;;;;11.25;8.45;;;5.80;99.90;;;;;;7333422;32;20206;-56
2023/12/17 18:01:38;;;;;;;12.30;8.90;;;5.80;99.90;;;;;;7335341;32;20163;-56
2023/12/17 18:05:41;;;;;;;39.45;24.10;;;5.80;99.90;;;;;;7344357;32;20162;-55
2023/12/17 18:09:43;;;;;;;16.25;11.30;;;5.80;99.90;;;;;;7343527;32;20181;-56
2023/12/17 18:13:45;;;;;;;15.05;9.25;;;5.70;99.90;;;;;;7352473;32;20548;-56
2023/12/17 18:17:47;;;;;;;11.60;8.32;;;5.60;99.90;;;;;;7349843;32;20119;-56
2023/12/17 18:21:49;;;;;;;13.88;8.88;;;5.60;99.90;;;;;;7348111;32;20577;-56
2023/12/17 18:25:50;;;;;;;12.27;8.80;;;5.60;99.90;;;;;;7339030;32;20131;-56
2023/12/17 18:29:52;;;;;;;10.60;8.07;;;5.80;99.90;;;;;;7353142;32;20329;-57
2023/12/17 18:33:56;;;;;;;15.05;10.98;;;5.70;99.90;;;;;;7350155;32;20114;-56
2023/12/17 18:37:58;;;;;;;15.77;9.90;;;5.60;99.90;;;;;;7356352;32;20134;-56
2023/12/17 18:41:59;;;;;;;14.00;9.30;;;5.50;99.90;;;;;;7354446;32;20210;-55
2023/12/17 18:46:01;;;;;;;13.85;9.50;;;5.40;99.90;;;;;;7344484;32;20210;-57
2023/12/17 18:50:05;;;;;;;12.80;9.32;;;5.40;99.90;;;;;;7352365;32;20623;-56
2023/12/17 18:54:07;;;;;;;14.30;8.85;;;5.30;99.90;;;;;;7346486;32;20176;-56
2023/12/17 18:58:09;;;;;;;12.45;8.88;;;5.30;99.90;;;;;;7353926;32;20111;-56
2023/12/17 19:02:11;;;;;;;13.88;8.60;;;5.30;99.90;;;;;;7344742;32;20190;-55
2023/12/17 19:06:13;;;;;;;13.40;8.95;;;5.30;99.90;;;;;;7344963;32;20852;-56
2023/12/17 19:10:15;;;;;;;15.68;9.13;;;5.40;99.90;;;;;;7342002;32;20182;-57
2023/12/17 19:14:17;;;;;;;12.73;8.10;;;5.50;99.90;;;;;;7342553;32;20152;-55
2023/12/17 19:18:18;;;;;;;12.85;8.75;;;5.60;99.90;;;;;;7339545;32;20107;-55
2023/12/17 19:22:23;;;;;;;12.18;9.05;;;5.60;99.90;;;;;;7341834;32;20697;-55
2023/12/17 19:26:25;;;;;;;11.70;8.27;;;5.60;99.90;;;;;;7344858;32;20189;-56
2023/12/17 19:30:27;;;;;;;13.05;9.13;;;5.70;99.90;;;;;;7336868;32;20691;-56
2023/12/17 19:34:38;;;;;;;11.63;8.68;;;5.60;99.90;;;;;;7344917;32;20127;-64
2023/12/17 19:38:42;;;;;;;12.00;8.43;;;5.70;99.90;;;;;;7349844;32;20269;-65
2023/12/17 19:42:44;;;;;;;10.05;7.45;;;5.70;99.90;;;;;;7345422;32;20127;-56
2023/12/17 19:46:46;;;;;;;10.68;8.10;;;5.80;99.90;;;;;;7347387;32;20210;-56
2023/12/17 19:50:48;;;;;;;12.55;8.48;;;5.80;99.90;;;;;;7350268;32;20585;-55
2023/12/17 19:54:50;;;;;;;10.65;7.32;;;5.70;99.90;;;;;;7343267;32;20743;-56
2023/12/17 19:58:52;;;;;;;11.82;8.90;;;5.70;99.90;;;;;;7349480;32;20223;-56
2023/12/17 20:02:53;;;;;;;13.60;8.65;;;5.70;99.90;;;;;;7348476;32;20123;-57
2023/12/17 20:06:55;;;;;;;12.23;8.77;;;5.80;99.90;;;;;;7343916;32;20111;-58
2023/12/17 20:10:59;;;;;;;13.35;9.07;;;5.70;99.90;;;;;;7346487;32;20092;-56
2023/12/17 20:15:04;;;;;;;13.60;8.45;;;5.90;99.90;;;;;;7348078;32;20603;-55
2023/12/17 20:19:13;;;;;;;12.63;7.65;;;5.90;99.90;;;;;;7350375;32;20107;-55
2023/12/17 20:23:15;;;;;;;13.23;8.45;;;5.80;99.90;;;;;;7349512;32;20167;-56
2023/12/17 20:27:18;;;;;;;12.37;7.85;;;5.90;99.90;;;;;;7347924;32;20099;-55
2023/12/17 20:31:20;;;;;;;11.05;7.90;;;5.80;99.90;;;;;;7350609;32;20132;-55
2023/12/17 20:35:22;;;;;;;12.18;7.78;;;5.70;99.90;;;;;;7341429;32;20147;-56
2023/12/17 20:39:24;;;;;;;10.82;7.75;;;5.70;99.90;;;;;;7344977;32;20553;-57
2023/12/17 20:43:26;;;;;;;12.18;7.60;;;5.70;99.90;;;;;;7348556;32;20620;-57
2023/12/17 20:47:27;;;;;;;9.95;7.07;;;5.60;99.90;;;;;;7346296;32;20173;-55
2023/12/17 20:51:29;;;;;;;11.65;6.87;;;5.60;99.90;;;;;;7341387;32;20210;-54
2023/12/17 20:55:31;;;;;;;10.45;6.82;;;5.80;99.90;;;;;;7345851;32;20912;-56
2023/12/17 20:59:33;;;;;;;10.35;7.18;;;5.70;99.90;;;;;;7348493;32;20250;-56